Wantage, NJ

4:48 PM EDT on August 20, 2014 (GMT -0400)
Sussex | Change Station
CLOSE
Current Station
Airport
Location: Sussex,
Elevation: 420 ft
Nearby Weather Stations

Elev 420 ft 41.20 °N, 74.63 °W | Updated 55 minutes ago

Scattered Clouds
Scattered Clouds
85 °F
Feels Like 86 °F
N
6
Wind Variable Wind from SW

Today
High -- | Low -- °F
--% Chance of Precip.
Yesterday
High -- | Low -- °F
Precip. -- in
6:12 AM 7:50 PM
Waning Crescent, 19% visible
Pressure 29.96 in
Visibility 10.0 miles
Clouds Scattered Clouds 4800 ft
Scattered Clouds 6000 ft
Heat Index 86 °F
Dew Point 63 °F
Humidity 48%
Rainfall 0.00 in
Snow Depth Not available.
UV 5 out of 12
Pollen 9.70 out of 12
Air Quality Not available.
Flu Activity Not available.
METAR KFWN 201953Z AUTO 23005KT 10SM SCT048 SCT060 29/17 A2996 RMK AO2 SLP144 T02940172

More Conditions Fewer Conditions

Pressure 29.96 in
Visibility 10.0 miles
Clouds Scattered Clouds 4800 ft
Scattered Clouds 6000 ft
Heat Index 86 °F
Dew Point 63 °F
Humidity 48%
Rainfall 0.00 in
Snow Depth Not available.
UV 5 out of 12
Pollen 9.70 out of 12
Air Quality Not available.
Flu Activity Not available.
METAR KFWN 201953Z AUTO 23005KT 10SM SCT048 SCT060 29/17 A2996 RMK AO2 SLP144 T02940172

More Conditions Fewer Conditions

10-Day Weather Forecast

Almanac

Astronomy

Aug. 20, 2014 Rise Set
Actual Time 6:12 AM EDT 7:50 PM EDT
Civil Twilight 5:43 AM EDT 8:19 PM EDT
Nautical Twilight 5:08 AM EDT 8:54 PM EDT
Astronomical Twilight 4:30 AM EDT 9:31 PM EDT
Moon 1:49 AM EDT 4:34 PM EDT
Length of Visible Light 14h 35m
Length of Day
13h 37m
Tomorrow will be 2m 30s shorter.
Waning Crescent, 19% of the Moon is Illuminated
Today
Waning Crescent
Aug 25
New
Sep 2
First Quarter
Sep 8
Full
Sep 15
Last Quarter

Today's Extremes

State Highs State Lows

Community

WunderPhotos

Upload Photos

1,745,750 photos uploaded!

WunderBlogs® & News

Nearby

Snow Depth

Station Depth Elevation
No new snow has been reported.

Earthquake Activity

City Distance Mag. Time & Date
No recent earthquake activity has been reported nearby.
Minimum magnitude displayed is 2.5.

Coastal Water Temperatures

Place Temperature
No Stations Reporting

Nearby Weather Stations